createdAt,value
2022-09-24T00:01:03.356Z,19.4
2022-09-24T00:06:40.527Z,19.4
2022-09-24T00:12:02.439Z,19.4
2022-09-24T00:17:39.788Z,19.4
2022-09-24T00:23:15.788Z,19.4
2022-09-24T00:28:52.934Z,19.3
2022-09-24T00:34:31.233Z,19.4
2022-09-24T00:40:09.277Z,19.4
2022-09-24T00:45:14.327Z,19.4
2022-09-24T00:50:36.794Z,19.4
2022-09-24T00:55:43.476Z,19.4
2022-09-24T01:01:05.380Z,19.4
2022-09-24T01:06:28.160Z,19.4
2022-09-24T01:11:33.906Z,19.3
2022-09-24T01:16:56.390Z,19.3
2022-09-24T01:22:18.553Z,19.3
2022-09-24T01:27:42.233Z,19.4
2022-09-24T01:33:05.672Z,19.3
2022-09-24T01:38:28.287Z,19.3
2022-09-24T01:43:49.790Z,19.3
2022-09-24T01:48:58.046Z,19.3
2022-09-24T01:54:20.767Z,19.3
2022-09-24T01:59:58.081Z,19.3
2022-09-24T02:04:49.487Z,19.3
2022-09-24T02:10:11.925Z,19.2
2022-09-24T02:15:33.367Z,19.2
2022-09-24T02:21:10.517Z,19.2
2022-09-24T02:26:18.224Z,19.2
2022-09-24T02:31:56.301Z,19.2
2022-09-24T02:37:17.537Z,19.2
2022-09-24T02:42:55.418Z,19.2
2022-09-24T02:48:17.933Z,19.2
2022-09-24T02:53:54.466Z,19.2
2022-09-24T02:59:16.746Z,19.2
2022-09-24T03:04:55.315Z,19.2
2022-09-24T03:10:16.278Z,19.2
2022-09-24T03:15:44.146Z,19.1
2022-09-24T03:21:20.887Z,19.2
2022-09-24T03:26:26.679Z,19.1
2022-09-24T03:31:49.057Z,19.1
2022-09-24T03:37:11.275Z,19.1
2022-09-24T03:42:31.751Z,19.1
2022-09-24T03:47:54.177Z,19.1
2022-09-24T03:53:15.850Z,19.1
2022-09-24T03:58:51.963Z,19.1
2022-09-24T04:03:47.626Z,19.1
2022-09-24T04:09:29.087Z,19.1
2022-09-24T04:14:50.027Z,19.1
2022-09-24T04:20:27.072Z,19.1
2022-09-24T04:26:04.319Z,19.1
2022-09-24T04:31:25.764Z,19.1
2022-09-24T04:37:04.350Z,19.1
2022-09-24T04:42:42.039Z,19
2022-09-24T04:48:20.104Z,19.1
2022-09-24T04:53:48.478Z,19.1
2022-09-24T04:59:26.479Z,19.1
2022-09-24T05:05:10.113Z,19.1
2022-09-24T05:10:52.753Z,19
2022-09-24T05:16:16.531Z,19
2022-09-24T05:21:38.644Z,19.1
2022-09-24T05:27:00.383Z,19
2022-09-24T05:32:39.139Z,19
2022-09-24T05:38:15.649Z,19
2022-09-24T05:43:29.303Z,19
2022-09-24T05:49:07.565Z,19
2022-09-24T05:54:14.242Z,19.1
2022-09-24T05:59:42.117Z,19.1
2022-09-24T06:04:54.012Z,19.1
2022-09-24T06:10:16.642Z,19.1
2022-09-24T06:15:23.887Z,19.1
2022-09-24T06:20:47.119Z,19.1
2022-09-24T06:26:09.072Z,19.3
2022-09-24T06:31:19.968Z,19.2
2022-09-24T06:36:43.478Z,19.2
2022-09-24T06:41:50.495Z,19.3
2022-09-24T06:47:13.199Z,19.3
2022-09-24T06:52:53.921Z,19.3
2022-09-24T06:58:18.426Z,19.3
2022-09-24T07:03:41.373Z,19.3
2022-09-24T07:09:20.202Z,19.3
2022-09-24T07:14:57.006Z,19.3
2022-09-24T07:20:37.671Z,19.4
2022-09-24T07:26:15.880Z,19.4
2022-09-24T07:31:53.500Z,19.4
2022-09-24T07:37:15.595Z,19.4
2022-09-24T07:42:54.165Z,19.4
2022-09-24T07:48:21.321Z,19.4
2022-09-24T07:53:43.147Z,19.4
2022-09-24T07:59:05.804Z,19.5
2022-09-24T08:04:44.508Z,19.6
2022-09-24T08:10:08.689Z,19.6
2022-09-24T08:15:31.434Z,19.5
2022-09-24T08:21:09.101Z,19.6
2022-09-24T08:26:46.854Z,19.6
2022-09-24T08:32:24.560Z,19.6
2022-09-24T08:38:06.288Z,19.6
2022-09-24T08:43:43.976Z,19.6
2022-09-24T08:49:22.613Z,19.6
2022-09-24T08:55:00.329Z,19.5
2022-09-24T09:00:24.391Z,19.6
2022-09-24T09:06:05.935Z,19.5
2022-09-24T09:12:26.583Z,19.6
2022-09-24T09:18:08.008Z,19.5
2022-09-24T09:23:30.082Z,19.6
2022-09-24T09:28:56.885Z,19.6
2022-09-24T09:34:12.144Z,19.5
2022-09-24T09:39:40.019Z,19.6
2022-09-24T09:45:03.244Z,19.6
2022-09-24T09:50:29.229Z,19.5
2022-09-24T09:55:51.231Z,19.6
2022-09-24T10:01:28.576Z,19.6
2022-09-24T10:06:58.239Z,19.5
2022-09-24T10:12:36.233Z,19.6
2022-09-24T10:18:16.360Z,19.6
2022-09-24T10:23:58.939Z,19.5
2022-09-24T10:29:05.651Z,19.5
2022-09-24T10:34:12.738Z,19.5
2022-09-24T10:39:24.721Z,19.5
2022-09-24T10:44:31.890Z,19.5
2022-09-24T10:49:54.514Z,19.5
2022-09-24T10:55:06.966Z,19.4
2022-09-24T11:00:14.402Z,19.5
2022-09-24T11:05:54.418Z,19.4
2022-09-24T11:11:33.998Z,19.5
2022-09-24T11:17:11.910Z,19.5
2022-09-24T11:22:19.176Z,19.5
2022-09-24T11:27:56.948Z,19.4
2022-09-24T11:33:39.573Z,19.4
2022-09-24T11:39:01.331Z,19.4
2022-09-24T11:44:39.561Z,19.5
2022-09-24T11:50:17.097Z,19.4
2022-09-24T11:55:42.532Z,19.4
2022-09-24T12:01:07.314Z,19.4
2022-09-24T12:06:46.104Z,19.4
2022-09-24T12:12:07.470Z,19.6
2022-09-24T12:17:29.788Z,19.4
2022-09-24T12:22:52.432Z,19.4
2022-09-24T12:28:00.180Z,19.4
2022-09-24T12:33:42.934Z,19.5
2022-09-24T12:39:10.305Z,19.6
2022-09-24T12:44:38.427Z,19.4
2022-09-24T12:50:16.168Z,19.6
2022-09-24T12:55:22.945Z,19.5
2022-09-24T13:01:02.378Z,19.4
2022-09-24T13:06:46.321Z,19.6
2022-09-24T13:12:12.968Z,19.6
2022-09-24T13:17:54.246Z,19.6
2022-09-24T13:23:37.262Z,19.6
2022-09-24T13:29:21.604Z,19.4
2022-09-24T13:34:58.665Z,19.4
2022-09-24T13:40:38.326Z,19.6
2022-09-24T13:46:16.906Z,19.5
2022-09-24T13:51:54.690Z,19.5
2022-09-24T13:57:31.973Z,19.5
2022-09-24T14:03:11.011Z,19.5
2022-09-24T14:08:48.510Z,19.5
2022-09-24T14:13:55.278Z,19.6
2022-09-24T14:19:03.091Z,19.6
2022-09-24T14:24:25.399Z,19.6
2022-09-24T14:30:05.066Z,19.6
2022-09-24T14:35:46.247Z,19.6
2022-09-24T14:41:09.295Z,19.6
2022-09-24T14:46:47.036Z,19.6
2022-09-24T14:52:25.047Z,19.6
2022-09-24T14:58:06.072Z,19.6
2022-09-24T15:03:28.479Z,19.6
2022-09-24T15:09:10.742Z,19.6
2022-09-24T15:14:48.715Z,19.6
2022-09-24T15:20:27.214Z,19.7
2022-09-24T15:26:08.277Z,19.6
2022-09-24T15:31:45.834Z,19.6
2022-09-24T15:37:24.238Z,19.7
2022-09-24T15:42:31.738Z,19.8
2022-09-24T15:48:11.496Z,19.6
2022-09-24T15:53:40.698Z,19.6
2022-09-24T15:59:08.159Z,19.6
2022-09-24T16:04:31.555Z,19.7
2022-09-24T16:10:09.486Z,19.7
2022-09-24T16:15:35.538Z,19.6
2022-09-24T16:21:01.511Z,19.6
2022-09-24T16:26:30.085Z,19.6
2022-09-24T16:32:08.658Z,19.6
2022-09-24T16:37:45.921Z,19.6
2022-09-24T16:43:24.090Z,19.6
2022-09-24T16:48:50.972Z,19.6
2022-09-24T16:53:46.376Z,19.6
2022-09-24T16:58:54.626Z,19.6
2022-09-24T17:04:34.338Z,19.6
2022-09-24T17:10:16.187Z,19.6
2022-09-24T17:16:01.353Z,19.6
2022-09-24T17:21:26.765Z,19.7
2022-09-24T17:27:08.658Z,19.6
2022-09-24T17:32:35.162Z,19.7
2022-09-24T17:38:41.568Z,19.6
2022-09-24T17:44:20.003Z,19.7
2022-09-24T17:49:32.265Z,19.6
2022-09-24T17:54:55.801Z,19.7
2022-09-24T18:00:33.358Z,19.6
2022-09-24T18:05:56.398Z,19.6
2022-09-24T18:11:34.066Z,19.6
2022-09-24T18:17:02.091Z,19.6
2022-09-24T18:22:25.237Z,19.6
2022-09-24T18:27:31.896Z,19.5
2022-09-24T18:33:09.759Z,19.5
2022-09-24T18:38:48.019Z,19.6
2022-09-24T18:44:10.571Z,19.5
2022-09-24T18:49:33.688Z,19.4
2022-09-24T18:55:11.658Z,19.5
2022-09-24T19:00:34.859Z,19.4
2022-09-24T19:05:59.111Z,19.5
2022-09-24T19:11:36.693Z,19.6
2022-09-24T19:17:19.447Z,19.5
2022-09-24T19:22:30.511Z,19.5
2022-09-24T19:27:37.657Z,19.5
2022-09-24T19:33:00.810Z,19.6
2022-09-24T19:38:08.912Z,19.5
2022-09-24T19:43:00.767Z,19.6
2022-09-24T19:48:07.437Z,19.6
2022-09-24T19:53:18.984Z,19.6
2022-09-24T19:58:45.865Z,19.6
2022-09-24T20:04:09.052Z,19.6
2022-09-24T20:09:21.528Z,19.6
2022-09-24T20:14:12.663Z,19.6
2022-09-24T20:19:35.301Z,19.6
2022-09-24T20:24:44.854Z,19.5
2022-09-24T20:29:38.118Z,19.6
2022-09-24T20:34:45.563Z,19.6
2022-09-24T20:40:10.032Z,19.6
2022-09-24T20:45:38.296Z,19.6
2022-09-24T20:51:01.411Z,19.6
2022-09-24T20:56:09.920Z,19.6
2022-09-24T21:01:32.324Z,19.6
2022-09-24T21:07:37.580Z,19.6
2022-09-24T21:13:16.822Z,19.6
2022-09-24T21:19:29.114Z,19.6
2022-09-24T21:25:06.753Z,19.6
2022-09-24T21:31:10.415Z,19.6
2022-09-24T21:36:32.735Z,19.6
2022-09-24T21:42:10.975Z,19.6
2022-09-24T21:47:33.144Z,19.5
2022-09-24T21:52:54.592Z,19.6
2022-09-24T21:57:45.446Z,19.5
2022-09-24T22:03:23.649Z,19.6
2022-09-24T22:08:45.410Z,19.6
2022-09-24T22:14:22.527Z,19.6
2022-09-24T22:20:00.500Z,19.6
2022-09-24T22:25:21.913Z,19.6
2022-09-24T22:30:19.798Z,19.6
2022-09-24T22:35:44.461Z,19.6
2022-09-24T22:41:24.323Z,19.6
2022-09-24T22:47:04.463Z,19.6
2022-09-24T22:52:28.541Z,19.6
2022-09-24T22:58:08.234Z,19.6
2022-09-24T23:03:53.009Z,19.6
2022-09-24T23:09:31.069Z,19.6
2022-09-24T23:14:53.899Z,19.6
2022-09-24T23:20:16.526Z,19.5
2022-09-24T23:25:54.567Z,19.6
2022-09-24T23:31:33.287Z,19.6
2022-09-24T23:37:10.168Z,19.5
2022-09-24T23:42:32.260Z,19.5
2022-09-24T23:48:09.837Z,19.6
2022-09-24T23:53:16.259Z,19.6
2022-09-24T23:58:37.538Z,19.5
